Time;durP1;ratioP1;P1;durP2;ratioP2;P2;SDS_P1;SDS_P2;PMS_P1;PMS_P2;Temp;Humidity;BMP_temperature;BMP_pressure;BME280_temperature;BME280_humidity;BME280_pressure;Samples;Min_cycle;Max_cycle;Signal;HPM_P1;HPM_P2
2023/09/14 00:00:32;;;;;;;2.88;1.40;;;9.00;99.90;;;;;;5134183;28;20087;-74
2023/09/14 00:02:59;;;;;;;3.75;1.27;;;9.00;99.90;;;;;;5133530;28;20119;-74
2023/09/14 00:05:25;;;;;;;5.10;2.50;;;9.00;99.90;;;;;;5134087;28;20104;-75
2023/09/14 00:07:51;;;;;;;4.85;1.40;;;9.10;99.90;;;;;;5134315;28;20047;-74
2023/09/14 00:10:16;;;;;;;3.67;1.40;;;9.10;99.90;;;;;;5134674;28;20058;-74
2023/09/14 00:12:42;;;;;;;3.22;1.17;;;9.00;99.90;;;;;;5134036;28;20038;-73
2023/09/14 00:15:08;;;;;;;2.20;1.25;;;9.10;99.90;;;;;;5135127;28;20047;-74
2023/09/14 00:17:34;;;;;;;3.13;1.23;;;9.10;99.90;;;;;;5134425;28;20108;-74
2023/09/14 00:20:00;;;;;;;2.95;1.30;;;9.10;99.90;;;;;;5133919;28;20043;-74
2023/09/14 00:22:26;;;;;;;2.00;1.15;;;9.10;99.90;;;;;;5115909;28;20505;-74
2023/09/14 00:24:52;;;;;;;2.70;1.20;;;9.10;99.90;;;;;;5134260;28;20083;-74
2023/09/14 00:27:18;;;;;;;2.20;1.10;;;9.10;99.90;;;;;;5134226;28;20440;-74
2023/09/14 00:29:46;;;;;;;3.10;0.93;;;9.00;99.90;;;;;;5102260;27;20047;-75
2023/09/14 00:32:12;;;;;;;2.03;0.93;;;9.00;99.90;;;;;;5139519;27;20079;-75
2023/09/14 00:34:37;;;;;;;2.25;1.05;;;9.00;99.90;;;;;;5140304;27;20557;-74
2023/09/14 00:37:04;;;;;;;2.13;1.10;;;8.90;99.90;;;;;;5159279;27;20043;-75
2023/09/14 00:39:30;;;;;;;4.00;1.60;;;8.90;99.90;;;;;;5120637;27;20043;-75
2023/09/14 00:41:56;;;;;;;3.53;1.50;;;8.90;99.90;;;;;;5137523;27;20050;-75
2023/09/14 00:44:21;;;;;;;2.78;1.20;;;8.90;99.90;;;;;;5137390;27;20045;-75
2023/09/14 00:46:47;;;;;;;4.22;1.38;;;8.90;99.90;;;;;;5137825;27;20107;-74
2023/09/14 00:49:14;;;;;;;3.22;1.20;;;8.80;99.90;;;;;;5137861;27;20406;-75
2023/09/14 00:51:40;;;;;;;3.42;1.13;;;8.80;99.90;;;;;;5137457;27;20092;-75
2023/09/14 00:54:06;;;;;;;3.38;1.45;;;8.70;99.90;;;;;;5137775;27;20369;-74
2023/09/14 00:56:32;;;;;;;3.72;1.60;;;8.60;99.90;;;;;;5138203;27;20099;-75
2023/09/14 00:58:58;;;;;;;3.78;1.50;;;8.60;99.90;;;;;;5137255;27;20377;-74
2023/09/14 01:01:24;;;;;;;3.63;1.60;;;8.60;99.90;;;;;;5137590;27;20135;-75
2023/09/14 01:03:50;;;;;;;2.75;1.45;;;8.60;99.90;;;;;;5137491;27;20130;-74
2023/09/14 01:06:16;;;;;;;2.55;1.40;;;8.70;99.90;;;;;;5137580;27;20050;-74
2023/09/14 01:08:42;;;;;;;2.75;1.20;;;8.70;99.90;;;;;;5137592;27;20573;-75
2023/09/14 01:11:08;;;;;;;3.70;1.30;;;8.70;99.90;;;;;;5137414;27;20047;-75
2023/09/14 01:14:08;;;;;;;2.63;1.40;;;8.80;99.90;;;;;;5136950;27;20050;-74
2023/09/14 01:16:55;;;;;;;3.58;1.45;;;8.80;99.90;;;;;;5137088;27;20055;-75
2023/09/14 01:19:43;;;;;;;2.63;1.25;;;8.80;99.90;;;;;;5136685;27;20108;-75
2023/09/14 01:22:18;;;;;;;3.97;1.70;;;9.00;99.90;;;;;;5137228;27;20047;-75
2023/09/14 01:24:58;;;;;;;3.38;1.10;;;9.00;99.90;;;;;;5136749;27;20035;-75
2023/09/14 01:27:23;;;;;;;2.00;1.15;;;9.10;99.90;;;;;;5137673;27;20050;-75
2023/09/14 01:29:49;;;;;;;2.92;1.30;;;9.20;99.90;;;;;;5140933;27;20031;-74
2023/09/14 01:32:15;;;;;;;3.00;1.58;;;9.20;99.90;;;;;;5157769;27;20092;-75
2023/09/14 01:34:41;;;;;;;3.65;1.50;;;9.10;99.90;;;;;;5157517;27;20122;-74
2023/09/14 01:37:07;;;;;;;3.42;1.45;;;9.10;99.90;;;;;;5157616;27;20134;-75
2023/09/14 01:39:34;;;;;;;5.80;1.52;;;9.10;99.90;;;;;;5137443;27;20051;-75
2023/09/14 01:42:01;;;;;;;3.78;1.40;;;9.00;99.90;;;;;;5136607;27;20408;-75
2023/09/14 01:44:27;;;;;;;3.47;1.42;;;9.00;99.90;;;;;;5136070;27;20075;-75
2023/09/14 01:46:56;;;;;;;1.80;1.38;;;9.00;99.90;;;;;;5136744;27;20503;-75
2023/09/14 01:49:22;;;;;;;2.13;1.25;;;8.90;99.90;;;;;;5136276;27;20484;-75
2023/09/14 01:51:48;;;;;;;2.97;1.45;;;8.80;99.90;;;;;;5117935;27;20396;-74
2023/09/14 01:54:14;;;;;;;3.83;1.48;;;8.80;99.90;;;;;;5136985;27;20050;-74
2023/09/14 01:56:40;;;;;;;2.47;1.52;;;8.80;99.90;;;;;;5136066;27;20442;-75
2023/09/14 01:59:06;;;;;;;3.20;1.23;;;8.80;99.90;;;;;;5136256;27;20039;-74
2023/09/14 02:01:31;;;;;;;2.53;1.20;;;8.80;99.90;;;;;;5136327;27;20091;-74
2023/09/14 02:03:57;;;;;;;2.72;1.30;;;8.90;99.90;;;;;;5136258;27;20050;-75
2023/09/14 02:06:22;;;;;;;2.75;1.40;;;8.90;99.90;;;;;;5117819;27;20047;-74
2023/09/14 02:08:48;;;;;;;3.58;1.20;;;8.90;99.90;;;;;;5136551;27;20050;-74
2023/09/14 02:11:14;;;;;;;2.75;1.30;;;9.00;99.90;;;;;;5136361;27;20100;-74
2023/09/14 02:13:40;;;;;;;2.63;1.30;;;8.90;99.90;;;;;;5136022;27;20468;-74
2023/09/14 02:16:06;;;;;;;3.00;1.52;;;8.90;99.90;;;;;;5136277;27;20047;-74
2023/09/14 02:18:32;;;;;;;4.60;1.60;;;8.90;99.90;;;;;;5117997;27;20050;-74
2023/09/14 02:20:58;;;;;;;2.35;1.25;;;8.90;99.90;;;;;;5135763;27;20395;-75
2023/09/14 02:23:24;;;;;;;4.32;1.33;;;8.80;99.90;;;;;;5135582;27;20050;-75
2023/09/14 02:25:50;;;;;;;3.63;1.50;;;8.80;99.90;;;;;;5136332;27;20047;-75
2023/09/14 02:28:19;;;;;;;3.10;1.40;;;8.80;99.90;;;;;;5136019;27;20053;-76
2023/09/14 02:30:45;;;;;;;2.47;1.00;;;8.70;99.90;;;;;;5129041;27;20509;-74
2023/09/14 02:33:11;;;;;;;1.90;1.00;;;8.70;99.90;;;;;;5156414;27;20043;-74
2023/09/14 02:35:39;;;;;;;2.65;1.20;;;8.60;99.90;;;;;;5155938;27;20197;-74
2023/09/14 02:38:05;;;;;;;2.05;1.40;;;8.50;99.90;;;;;;5149079;27;20043;-74
2023/09/14 02:40:31;;;;;;;2.60;1.10;;;8.50;99.90;;;;;;5135724;27;20058;-75
2023/09/14 02:42:58;;;;;;;3.67;1.50;;;8.50;99.90;;;;;;5135625;27;20124;-75
2023/09/14 02:45:24;;;;;;;3.80;1.77;;;8.40;99.90;;;;;;5135585;27;20097;-75
2023/09/14 02:47:49;;;;;;;3.22;1.60;;;8.40;99.90;;;;;;5101304;27;20491;-74
2023/09/14 02:50:15;;;;;;;4.53;1.83;;;8.40;99.90;;;;;;5137370;27;20047;-74
2023/09/14 02:52:41;;;;;;;4.53;1.58;;;8.40;99.90;;;;;;5137837;27;20050;-74
2023/09/14 02:55:07;;;;;;;3.63;1.67;;;8.40;99.90;;;;;;5136541;27;20039;-74
2023/09/14 02:57:32;;;;;;;2.95;1.42;;;8.40;99.90;;;;;;5117024;27;20043;-74
2023/09/14 02:59:58;;;;;;;2.92;1.20;;;8.50;99.90;;;;;;5134948;27;20391;-75
2023/09/14 03:02:24;;;;;;;2.05;1.10;;;8.50;99.90;;;;;;5135261;27;20039;-74
2023/09/14 03:04:50;;;;;;;3.90;1.30;;;8.50;99.90;;;;;;5135095;27;20479;-73
2023/09/14 03:07:16;;;;;;;2.33;1.10;;;8.40;99.90;;;;;;5117012;27;20134;-74
2023/09/14 03:09:42;;;;;;;2.15;1.10;;;8.30;99.90;;;;;;5134966;27;20051;-74
2023/09/14 03:12:08;;;;;;;2.95;1.10;;;8.10;99.90;;;;;;5116682;27;20043;-74
2023/09/14 03:14:34;;;;;;;3.65;1.80;;;8.00;99.90;;;;;;5134464;27;20097;-74
2023/09/14 03:17:00;;;;;;;2.22;1.20;;;8.00;99.90;;;;;;5134996;27;20082;-76
2023/09/14 03:19:26;;;;;;;2.75;1.17;;;8.00;99.90;;;;;;5116924;27;20122;-75
2023/09/14 03:21:51;;;;;;;3.80;1.67;;;8.00;99.90;;;;;;5134391;27;20047;-74
2023/09/14 03:24:17;;;;;;;3.83;1.40;;;8.00;99.90;;;;;;5134940;27;20122;-75
2023/09/14 03:26:43;;;;;;;2.63;1.50;;;8.00;99.90;;;;;;5134708;27;20051;-74
2023/09/14 03:29:09;;;;;;;3.35;1.95;;;8.10;99.90;;;;;;5134857;27;20043;-75
2023/09/14 03:31:35;;;;;;;6.95;3.28;;;8.10;99.90;;;;;;5153556;27;20435;-74
2023/09/14 03:34:01;;;;;;;4.47;2.08;;;8.30;99.90;;;;;;5155821;27;20039;-74
2023/09/14 03:36:27;;;;;;;3.53;1.80;;;8.30;99.90;;;;;;5137242;27;20082;-75
2023/09/14 03:38:53;;;;;;;3.85;1.67;;;8.20;99.90;;;;;;5141033;27;20043;-75
2023/09/14 03:41:18;;;;;;;4.90;2.40;;;8.20;99.90;;;;;;5134498;27;20050;-75
2023/09/14 03:43:44;;;;;;;2.88;1.30;;;8.10;99.90;;;;;;5134443;27;20043;-74
2023/09/14 03:46:13;;;;;;;2.53;1.38;;;8.00;99.90;;;;;;5134329;27;20139;-74
2023/09/14 03:48:38;;;;;;;3.53;1.40;;;8.00;99.90;;;;;;5134413;27;20070;-74
2023/09/14 03:51:04;;;;;;;2.55;1.50;;;8.00;99.90;;;;;;5098384;27;20472;-75
2023/09/14 03:53:30;;;;;;;2.88;1.60;;;8.00;99.90;;;;;;5134483;28;20130;-75
2023/09/14 03:56:00;;;;;;;5.63;1.83;;;8.00;99.90;;;;;;5134377;28;20039;-75
2023/09/14 03:58:27;;;;;;;2.58;1.50;;;8.00;99.90;;;;;;5134532;28;20083;-76
2023/09/14 04:00:53;;;;;;;1.85;1.10;;;8.00;99.90;;;;;;5134073;28;20035;-74
2023/09/14 04:03:19;;;;;;;3.17;1.48;;;7.90;99.90;;;;;;5134375;28;20039;-74
2023/09/14 04:05:45;;;;;;;2.75;1.48;;;7.90;99.90;;;;;;5134685;27;20495;-74
2023/09/14 04:08:12;;;;;;;3.50;1.75;;;7.90;99.90;;;;;;5138507;27;20122;-74
2023/09/14 04:10:38;;;;;;;4.25;2.08;;;7.90;99.90;;;;;;5138612;27;20043;-74
2023/09/14 04:13:27;;;;;;;3.63;1.42;;;7.90;99.90;;;;;;5138583;27;20403;-75
2023/09/14 04:15:53;;;;;;;3.90;1.65;;;8.00;99.90;;;;;;5138023;27;20055;-75
2023/09/14 04:18:19;;;;;;;4.07;1.70;;;8.00;99.90;;;;;;5138455;27;20051;-74
2023/09/14 04:20:48;;;;;;;3.78;1.35;;;7.90;99.90;;;;;;5138086;27;20092;-74
2023/09/14 04:23:14;;;;;;;4.00;1.70;;;7.90;99.90;;;;;;5138370;27;20055;-75
2023/09/14 04:25:44;;;;;;;3.38;1.80;;;8.00;99.90;;;;;;5137905;27;20046;-74
2023/09/14 04:28:14;;;;;;;3.72;1.85;;;8.00;99.90;;;;;;5137502;27;20488;-74
2023/09/14 04:30:48;;;;;;;2.80;1.90;;;8.00;99.90;;;;;;5130713;27;20081;-74
2023/09/14 04:33:15;;;;;;;5.25;1.98;;;8.00;99.90;;;;;;5158863;27;20038;-74
2023/09/14 04:35:41;;;;;;;4.13;1.80;;;8.10;99.90;;;;;;5140681;27;20607;-74
2023/09/14 04:38:08;;;;;;;4.40;1.88;;;8.20;99.90;;;;;;5132883;27;20046;-74
2023/09/14 04:40:42;;;;;;;3.45;1.65;;;8.20;99.90;;;;;;5138170;27;20043;-74
2023/09/14 04:43:08;;;;;;;3.15;1.65;;;8.30;99.90;;;;;;5138082;27;20458;-74
2023/09/14 04:45:34;;;;;;;2.83;1.67;;;8.30;99.90;;;;;;5137816;27;20130;-74
2023/09/14 04:48:00;;;;;;;3.88;1.90;;;8.30;99.90;;;;;;5138191;27;20122;-75
2023/09/14 04:50:26;;;;;;;2.90;1.65;;;8.30;99.90;;;;;;5137336;27;20476;-75
2023/09/14 04:52:52;;;;;;;3.80;1.70;;;8.30;99.90;;;;;;5137999;27;20054;-75
2023/09/14 04:55:18;;;;;;;3.15;1.40;;;8.20;99.90;;;;;;5137797;27;20467;-75
2023/09/14 04:57:43;;;;;;;2.95;1.50;;;8.10;99.90;;;;;;5137280;27;20043;-74
2023/09/14 05:00:09;;;;;;;4.63;1.20;;;8.10;99.90;;;;;;5137347;27;20044;-74
2023/09/14 05:02:37;;;;;;;4.22;1.65;;;8.10;99.90;;;;;;5118177;27;20077;-74
2023/09/14 05:05:04;;;;;;;2.97;1.90;;;8.00;99.90;;;;;;5136717;27;20498;-74
2023/09/14 05:07:29;;;;;;;2.47;1.42;;;8.00;99.90;;;;;;5136837;27;20046;-75
2023/09/14 05:09:56;;;;;;;2.65;1.50;;;7.90;99.90;;;;;;5137685;27;20047;-74
2023/09/14 05:12:21;;;;;;;3.47;1.20;;;8.00;99.90;;;;;;5137612;27;20432;-74
2023/09/14 05:14:47;;;;;;;4.57;1.40;;;8.00;99.90;;;;;;5137151;27;20148;-74
2023/09/14 05:17:13;;;;;;;3.20;1.20;;;8.00;99.90;;;;;;5117912;28;20054;-74
2023/09/14 05:19:42;;;;;;;3.10;1.73;;;8.10;99.90;;;;;;5136808;27;20043;-74
2023/09/14 05:22:09;;;;;;;3.50;1.40;;;8.00;99.90;;;;;;5136723;27;20047;-75
2023/09/14 05:24:34;;;;;;;3.85;1.48;;;8.00;99.90;;;;;;5118964;27;20438;-74
2023/09/14 05:27:00;;;;;;;4.00;1.42;;;8.00;99.90;;;;;;5137000;27;20100;-74
2023/09/14 05:29:26;;;;;;;4.15;1.35;;;8.00;99.90;;;;;;5137556;27;20100;-74
2023/09/14 05:31:52;;;;;;;2.35;1.25;;;8.10;99.90;;;;;;5157724;27;20042;-73
2023/09/14 05:34:18;;;;;;;2.78;1.25;;;8.10;99.90;;;;;;5139427;27;20475;-74
2023/09/14 05:36:44;;;;;;;4.15;1.58;;;8.10;99.90;;;;;;5157564;27;20054;-74
2023/09/14 05:39:09;;;;;;;2.60;1.48;;;8.20;99.90;;;;;;5140835;27;20046;-73
2023/09/14 05:41:35;;;;;;;3.95;1.27;;;8.20;99.90;;;;;;5136220;27;20043;-73
2023/09/14 05:44:05;;;;;;;2.45;1.20;;;8.20;99.90;;;;;;5136141;27;20047;-73
2023/09/14 05:46:30;;;;;;;3.72;1.25;;;8.20;99.90;;;;;;5136429;27;20103;-73
2023/09/14 05:48:56;;;;;;;2.10;1.10;;;8.20;99.90;;;;;;5136692;27;20448;-73
2023/09/14 05:51:23;;;;;;;2.70;1.10;;;8.20;99.90;;;;;;5117868;27;20051;-75
2023/09/14 05:53:49;;;;;;;2.78;1.38;;;8.20;99.90;;;;;;5118572;27;20043;-74
2023/09/14 05:56:15;;;;;;;4.57;1.30;;;8.20;99.90;;;;;;5136538;27;20609;-74
2023/09/14 05:58:40;;;;;;;2.33;1.25;;;8.20;99.90;;;;;;5136619;27;20061;-74
2023/09/14 06:01:06;;;;;;;2.58;1.40;;;8.30;99.90;;;;;;5136442;27;20091;-74
2023/09/14 06:03:32;;;;;;;3.45;1.40;;;8.40;99.90;;;;;;5136182;27;20043;-74
2023/09/14 06:05:57;;;;;;;2.72;1.30;;;8.50;99.90;;;;;;5117857;27;20443;-74
2023/09/14 06:08:23;;;;;;;4.70;1.63;;;8.70;99.90;;;;;;5136729;27;20043;-74
2023/09/14 06:10:49;;;;;;;2.83;1.58;;;8.80;99.90;;;;;;5136107;27;20047;-74
2023/09/14 06:13:16;;;;;;;3.50;1.73;;;8.90;99.90;;;;;;5136465;27;20394;-74
2023/09/14 06:15:42;;;;;;;3.10;1.40;;;9.00;99.90;;;;;;5136344;27;20104;-74
2023/09/14 06:18:08;;;;;;;2.55;1.40;;;9.10;99.90;;;;;;5135770;27;20043;-74
2023/09/14 06:20:33;;;;;;;2.47;1.35;;;9.20;99.90;;;;;;5135167;27;20046;-74
2023/09/14 06:22:59;;;;;;;3.22;1.48;;;9.30;99.90;;;;;;5117476;27;20080;-74
2023/09/14 06:25:25;;;;;;;2.83;1.45;;;9.30;99.90;;;;;;5117466;27;20054;-74
2023/09/14 06:27:50;;;;;;;2.95;1.73;;;9.40;99.90;;;;;;5135824;27;20042;-74
2023/09/14 06:30:16;;;;;;;4.88;1.88;;;9.50;99.90;;;;;;5143170;27;20122;-74
2023/09/14 06:32:42;;;;;;;2.90;1.75;;;9.70;99.90;;;;;;5138271;27;20049;-75
2023/09/14 06:35:08;;;;;;;4.35;1.40;;;9.80;99.90;;;;;;5156639;27;20074;-75
2023/09/14 06:37:33;;;;;;;4.47;1.70;;;10.00;99.90;;;;;;5153458;27;20403;-74
2023/09/14 06:39:59;;;;;;;2.53;1.42;;;10.20;99.90;;;;;;5135739;27;20194;-74
2023/09/14 06:42:25;;;;;;;4.20;1.40;;;10.30;99.90;;;;;;5135746;27;20387;-75
2023/09/14 06:44:51;;;;;;;2.55;1.50;;;10.50;99.90;;;;;;5117070;27;20484;-75
2023/09/14 06:47:17;;;;;;;3.55;1.40;;;10.60;99.90;;;;;;5135505;27;20046;-75
2023/09/14 06:49:42;;;;;;;3.45;1.35;;;10.80;99.90;;;;;;5117301;27;20448;-75
2023/09/14 06:52:08;;;;;;;2.60;1.30;;;11.00;99.90;;;;;;5116737;27;20391;-74
2023/09/14 06:54:34;;;;;;;2.83;1.45;;;11.10;99.90;;;;;;5100543;27;20543;-74
2023/09/14 06:56:59;;;;;;;2.17;1.33;;;11.20;99.90;;;;;;5116910;27;20062;-74
2023/09/14 06:59:25;;;;;;;5.43;1.33;;;11.30;99.90;;;;;;5116740;27;20054;-74
2023/09/14 07:01:51;;;;;;;2.58;1.25;;;11.40;99.90;;;;;;5134860;27;20071;-74
2023/09/14 07:04:17;;;;;;;3.58;1.25;;;11.60;99.90;;;;;;5135309;27;20399;-75
2023/09/14 07:06:42;;;;;;;3.60;1.30;;;11.70;99.90;;;;;;5116770;27;20051;-75
2023/09/14 07:09:09;;;;;;;3.20;1.15;;;11.80;99.90;;;;;;5135235;27;20042;-75
2023/09/14 07:11:35;;;;;;;3.80;1.58;;;12.00;99.90;;;;;;5135234;27;20051;-75
2023/09/14 07:14:02;;;;;;;4.15;1.60;;;12.10;99.90;;;;;;5134844;27;20076;-75
2023/09/14 07:16:28;;;;;;;4.63;1.77;;;12.30;99.90;;;;;;5134931;27;20058;-75
2023/09/14 07:18:54;;;;;;;2.92;1.10;;;12.40;99.90;;;;;;5116765;27;20043;-76
2023/09/14 07:21:20;;;;;;;2.70;1.15;;;12.50;99.90;;;;;;5134381;27;20373;-75
2023/09/14 07:23:47;;;;;;;2.80;1.05;;;12.70;99.90;;;;;;5134747;27;20039;-75
2023/09/14 07:26:12;;;;;;;2.50;1.00;;;12.80;99.90;;;;;;5134648;27;20043;-75
2023/09/14 07:28:38;;;;;;;3.75;1.48;;;12.90;99.90;;;;;;5134980;27;20043;-75
2023/09/14 07:31:05;;;;;;;4.15;1.38;;;13.00;99.90;;;;;;5149059;27;20091;-75
2023/09/14 07:33:31;;;;;;;3.63;1.25;;;13.10;99.90;;;;;;5155363;27;20113;-75
2023/09/14 07:35:57;;;;;;;4.18;1.23;;;13.30;99.90;;;;;;5155270;27;20088;-75
2023/09/14 07:38:23;;;;;;;4.35;1.80;;;13.40;99.90;;;;;;5154885;27;20399;-75
2023/09/14 07:40:49;;;;;;;2.67;1.35;;;13.50;99.90;;;;;;5154306;27;20471;-75
2023/09/14 07:43:14;;;;;;;2.50;1.20;;;13.60;99.90;;;;;;5155370;27;20439;-76
2023/09/14 07:45:40;;;;;;;3.83;1.17;;;13.70;99.90;;;;;;5137069;27;20483;-75
2023/09/14 07:48:07;;;;;;;3.45;1.02;;;13.80;99.90;;;;;;5155148;27;20057;-75
2023/09/14 07:50:40;;;;;;;2.45;1.25;;;14.00;99.90;;;;;;5136697;27;20050;-75
2023/09/14 07:53:09;;;;;;;3.42;0.90;;;14.10;99.90;;;;;;5155259;27;20082;-76
2023/09/14 07:55:36;;;;;;;4.65;1.30;;;14.30;99.90;;;;;;5155112;27;20050;-75
2023/09/14 07:58:02;;;;;;;4.97;1.00;;;14.30;99.90;;;;;;5155524;27;20390;-75
2023/09/14 08:00:28;;;;;;;3.47;1.10;;;14.50;99.90;;;;;;5155221;27;20398;-75
2023/09/14 08:02:54;;;;;;;3.47;1.10;;;14.50;99.90;;;;;;5155102;27;20046;-76
2023/09/14 08:05:20;;;;;;;3.92;1.17;;;14.60;99.90;;;;;;5156657;27;20049;-76
2023/09/14 08:07:46;;;;;;;3.10;1.50;;;14.70;99.90;;;;;;5157112;27;20077;-76
2023/09/14 08:10:12;;;;;;;3.58;1.00;;;14.80;99.90;;;;;;5138945;27;20042;-76
2023/09/14 08:12:38;;;;;;;2.90;1.00;;;14.80;99.90;;;;;;5137339;27;20047;-76
2023/09/14 08:15:04;;;;;;;4.22;0.93;;;15.00;99.90;;;;;;5154614;27;20054;-75
2023/09/14 08:17:30;;;;;;;3.92;1.35;;;15.10;99.90;;;;;;5136100;27;20189;-77
2023/09/14 08:19:56;;;;;;;3.97;1.27;;;15.20;99.90;;;;;;5136684;27;20109;-76
2023/09/14 08:22:23;;;;;;;5.13;1.30;;;15.30;99.90;;;;;;5135987;27;20068;-76
2023/09/14 08:24:52;;;;;;;2.83;1.30;;;15.50;99.90;;;;;;5155136;27;20043;-77
2023/09/14 08:27:18;;;;;;;3.05;1.00;;;15.50;99.90;;;;;;5119506;27;20078;-76
2023/09/14 08:29:44;;;;;;;5.57;1.20;;;15.70;99.90;;;;;;5154777;27;20095;-76
2023/09/14 08:32:13;;;;;;;4.38;1.20;;;15.80;99.90;;;;;;5154280;27;20043;-76
2023/09/14 08:34:39;;;;;;;2.55;0.98;;;15.90;99.90;;;;;;5154790;27;20043;-76
2023/09/14 08:37:08;;;;;;;2.85;1.20;;;15.90;99.90;;;;;;5154828;27;20054;-77
2023/09/14 08:39:34;;;;;;;2.42;0.90;;;16.00;99.90;;;;;;5154696;27;20091;-77
2023/09/14 08:41:59;;;;;;;4.45;1.30;;;16.10;99.90;;;;;;5154920;27;20458;-77
2023/09/14 08:44:26;;;;;;;1.92;1.05;;;16.10;99.90;;;;;;5154176;27;20050;-77
2023/09/14 08:46:56;;;;;;;4.43;1.10;;;16.10;99.90;;;;;;5154560;27;20072;-77
2023/09/14 08:49:22;;;;;;;3.40;1.10;;;16.20;99.90;;;;;;5154720;27;20043;-77
2023/09/14 08:51:51;;;;;;;3.63;1.23;;;16.30;99.90;;;;;;5136200;27;20391;-77
2023/09/14 08:54:21;;;;;;;4.63;1.08;;;16.40;99.90;;;;;;5158022;27;20039;-77
2023/09/14 08:56:49;;;;;;;2.65;0.98;;;16.50;99.90;;;;;;5158231;27;20050;-76
2023/09/14 08:59:17;;;;;;;7.32;1.52;;;16.50;99.90;;;;;;5158757;27;20440;-77
2023/09/14 09:01:44;;;;;;;3.65;1.20;;;16.60;99.90;;;;;;5158274;27;20074;-75
2023/09/14 09:04:11;;;;;;;4.95;1.20;;;16.70;99.90;;;;;;5158221;27;20046;-75
2023/09/14 09:06:37;;;;;;;3.17;1.20;;;16.80;99.90;;;;;;5158339;27;20543;-77
2023/09/14 09:09:04;;;;;;;5.35;1.20;;;16.80;99.90;;;;;;5158189;27;20122;-78
2023/09/14 09:11:30;;;;;;;5.18;1.20;;;16.90;99.90;;;;;;5158157;27;20043;-77
2023/09/14 09:13:56;;;;;;;5.65;1.13;;;17.00;99.90;;;;;;5158390;27;20053;-77
2023/09/14 09:16:22;;;;;;;5.40;1.17;;;17.00;99.90;;;;;;5158143;27;20050;-75
2023/09/14 09:19:05;;;;;;;3.60;1.13;;;17.00;99.90;;;;;;5158511;27;20046;-75
2023/09/14 09:21:33;;;;;;;4.82;1.17;;;17.10;99.90;;;;;;5139110;27;20497;-76
2023/09/14 09:24:01;;;;;;;3.13;0.88;;;17.20;99.90;;;;;;5158168;27;20084;-75
2023/09/14 09:26:35;;;;;;;3.28;1.20;;;17.20;99.90;;;;;;5158320;27;20047;-76
2023/09/14 09:29:16;;;;;;;3.58;1.23;;;17.30;99.90;;;;;;5157776;27;20458;-74
2023/09/14 09:31:43;;;;;;;3.33;1.17;;;17.30;99.90;;;;;;5136914;27;20039;-75
2023/09/14 09:34:13;;;;;;;3.00;0.90;;;17.20;99.90;;;;;;5118785;27;20051;-75
2023/09/14 09:36:39;;;;;;;3.28;1.10;;;17.10;99.90;;;;;;5118497;27;20039;-75
2023/09/14 09:39:06;;;;;;;4.28;1.38;;;17.00;99.90;;;;;;5152926;27;20051;-77
2023/09/14 09:41:36;;;;;;;3.15;1.20;;;17.00;99.90;;;;;;5139144;27;20038;-75
2023/09/14 09:44:14;;;;;;;4.55;1.40;;;17.10;99.90;;;;;;5157260;27;20078;-75
2023/09/14 09:46:40;;;;;;;2.65;1.10;;;17.40;99.90;;;;;;5139341;27;20125;-76
2023/09/14 09:49:22;;;;;;;4.40;1.23;;;17.60;99.90;;;;;;5139302;27;20085;-75
2023/09/14 09:51:49;;;;;;;5.47;1.20;;;17.80;99.90;;;;;;5157080;27;20050;-76
2023/09/14 09:54:18;;;;;;;3.35;1.27;;;17.90;99.90;;;;;;5139992;27;20463;-76
2023/09/14 09:56:43;;;;;;;2.92;1.30;;;18.00;99.90;;;;;;5157244;27;20126;-76
2023/09/14 09:59:10;;;;;;;3.35;1.08;;;18.00;99.90;;;;;;5138971;27;20130;-77
2023/09/14 10:01:40;;;;;;;5.93;1.20;;;18.00;99.90;;;;;;5156996;27;20085;-76
2023/09/14 10:04:09;;;;;;;3.15;1.20;;;18.10;99.90;;;;;;5156275;27;20039;-76
2023/09/14 10:06:36;;;;;;;3.28;1.05;;;18.10;99.90;;;;;;5138942;27;20042;-77
2023/09/14 10:09:06;;;;;;;3.90;1.10;;;17.90;99.90;;;;;;5156436;27;20121;-76
2023/09/14 10:11:33;;;;;;;3.65;1.10;;;17.70;99.90;;;;;;5157185;27;20054;-76
2023/09/14 10:14:02;;;;;;;4.30;1.25;;;17.70;99.90;;;;;;5156858;27;20059;-79
2023/09/14 10:16:32;;;;;;;5.72;1.20;;;17.90;99.90;;;;;;5156816;27;20078;-77
2023/09/14 10:18:58;;;;;;;2.65;0.82;;;18.20;99.90;;;;;;5156992;27;20053;-77
2023/09/14 10:21:26;;;;;;;3.15;1.05;;;18.50;99.90;;;;;;5137942;27;20114;-77
2023/09/14 10:23:53;;;;;;;5.78;1.50;;;18.60;99.90;;;;;;5156669;27;20034;-76
2023/09/14 10:26:19;;;;;;;3.92;1.25;;;18.70;99.90;;;;;;5138476;27;20174;-76
2023/09/14 10:28:46;;;;;;;2.67;1.02;;;18.60;99.90;;;;;;5156838;27;20133;-78
2023/09/14 10:31:14;;;;;;;5.00;1.30;;;18.40;99.90;;;;;;5140941;27;20039;-76
2023/09/14 10:33:45;;;;;;;3.78;1.30;;;18.30;99.90;;;;;;5117579;27;20054;-77
2023/09/14 10:36:12;;;;;;;4.75;1.33;;;18.10;99.90;;;;;;5135391;27;20553;-76
2023/09/14 10:38:42;;;;;;;5.63;1.52;;;17.90;99.90;;;;;;5135744;27;20083;-77
2023/09/14 10:41:09;;;;;;;2.60;1.23;;;17.90;99.90;;;;;;5135773;27;20043;-77
2023/09/14 10:43:35;;;;;;;3.03;1.20;;;18.10;99.90;;;;;;5135586;27;20066;-76
2023/09/14 10:46:02;;;;;;;4.50;1.30;;;18.00;99.90;;;;;;5135244;27;20484;-76
2023/09/14 10:48:29;;;;;;;3.90;1.20;;;17.80;99.90;;;;;;5135155;27;20053;-76
2023/09/14 10:50:58;;;;;;;4.13;1.15;;;17.70;99.90;;;;;;5135072;27;20043;-75
2023/09/14 10:53:24;;;;;;;2.88;1.20;;;17.80;99.90;;;;;;5135557;27;20039;-77
2023/09/14 10:55:50;;;;;;;3.63;1.48;;;18.20;99.90;;;;;;5117063;27;20043;-77
2023/09/14 10:58:16;;;;;;;3.35;1.00;;;18.60;99.90;;;;;;5135315;27;20148;-77
2023/09/14 11:00:42;;;;;;;3.95;1.30;;;18.80;99.90;;;;;;5135171;27;20126;-77
2023/09/14 11:03:09;;;;;;;3.40;1.15;;;18.80;99.90;;;;;;5134992;27;20209;-77
2023/09/14 11:05:43;;;;;;;4.03;1.60;;;18.90;99.90;;;;;;5116554;27;20051;-77
2023/09/14 11:08:10;;;;;;;3.85;1.35;;;18.90;99.90;;;;;;5135107;27;20043;-77
2023/09/14 11:10:39;;;;;;;2.80;1.20;;;18.90;99.90;;;;;;5135082;27;20042;-77
2023/09/14 11:13:20;;;;;;;4.65;1.17;;;18.80;99.90;;;;;;5135070;27;20083;-78
2023/09/14 11:15:47;;;;;;;3.20;1.27;;;18.40;99.90;;;;;;5116127;27;20552;-77
2023/09/14 11:18:20;;;;;;;2.92;1.13;;;18.10;99.90;;;;;;5135186;27;20035;-77
2023/09/14 11:20:46;;;;;;;4.88;1.42;;;17.80;99.90;;;;;;5116247;27;20396;-77
2023/09/14 11:23:12;;;;;;;3.85;1.13;;;17.70;99.90;;;;;;5134651;27;20050;-76
2023/09/14 11:25:43;;;;;;;3.28;1.20;;;17.60;99.90;;;;;;5134371;27;20392;-77
2023/09/14 11:28:19;;;;;;;3.45;1.30;;;17.50;99.90;;;;;;5116449;27;20047;-76
2023/09/14 11:30:47;;;;;;;2.85;1.27;;;17.60;99.90;;;;;;5146666;27;20049;-76
2023/09/14 11:33:14;;;;;;;3.70;1.17;;;17.80;99.90;;;;;;5136978;27;20052;-78
2023/09/14 11:35:45;;;;;;;3.65;1.30;;;17.90;99.90;;;;;;5155333;27;20054;-78
2023/09/14 11:38:25;;;;;;;2.80;1.20;;;17.80;99.90;;;;;;5129138;27;20051;-78
2023/09/14 11:40:50;;;;;;;6.03;1.40;;;17.60;99.90;;;;;;5134753;27;20039;-76
2023/09/14 11:43:22;;;;;;;3.38;1.42;;;17.50;99.90;;;;;;5116801;27;20126;-76
2023/09/14 11:45:58;;;;;;;3.03;1.10;;;17.30;99.90;;;;;;5134748;27;20047;-77
2023/09/14 11:48:28;;;;;;;3.13;1.30;;;17.30;99.90;;;;;;5134588;27;20047;-76
2023/09/14 11:50:54;;;;;;;3.88;1.50;;;17.40;99.90;;;;;;5134082;27;20055;-75
2023/09/14 11:53:22;;;;;;;3.15;1.17;;;17.60;99.90;;;;;;5134522;27;20057;-77
2023/09/14 11:55:49;;;;;;;4.65;1.50;;;17.60;99.90;;;;;;5134335;27;20043;-76
2023/09/14 11:58:16;;;;;;;3.03;1.38;;;17.60;99.90;;;;;;5134653;28;20087;-76
2023/09/14 12:00:51;;;;;;;3.40;1.20;;;17.50;99.90;;;;;;5134224;28;20134;-76
2023/09/14 12:03:17;;;;;;;3.03;1.23;;;17.70;99.90;;;;;;5134139;28;20126;-76
2023/09/14 12:05:43;;;;;;;3.10;1.13;;;18.00;99.90;;;;;;5134886;28;20570;-77
2023/09/14 12:08:14;;;;;;;2.80;1.48;;;18.10;99.90;;;;;;5134455;28;20050;-75
2023/09/14 12:10:40;;;;;;;3.65;1.33;;;18.00;99.90;;;;;;5134457;28;20476;-76
2023/09/14 12:13:14;;;;;;;3.33;1.40;;;17.90;99.90;;;;;;5134354;28;20066;-76
2023/09/14 12:15:44;;;;;;;4.20;1.35;;;17.80;99.90;;;;;;5112520;28;20087;-76
2023/09/14 12:18:11;;;;;;;4.07;1.30;;;17.70;99.90;;;;;;5113520;28;20085;-76
2023/09/14 12:20:41;;;;;;;3.72;1.17;;;17.60;99.90;;;;;;5113542;28;20062;-75
2023/09/14 12:23:09;;;;;;;4.38;1.40;;;17.70;99.90;;;;;;5113418;28;20586;-78
2023/09/14 12:25:37;;;;;;;5.80;1.20;;;17.70;99.90;;;;;;5113627;28;20051;-77
2023/09/14 12:28:08;;;;;;;3.17;1.40;;;17.70;99.90;;;;;;5116316;28;20051;-76
2023/09/14 12:30:36;;;;;;;5.22;1.42;;;17.70;99.90;;;;;;5127759;27;20043;-76
2023/09/14 12:33:03;;;;;;;4.35;1.25;;;17.70;99.90;;;;;;5137156;27;20505;-76
2023/09/14 12:35:30;;;;;;;4.20;1.40;;;17.60;99.90;;;;;;5138545;27;20054;-76
2023/09/14 12:38:03;;;;;;;3.15;1.10;;;17.70;99.90;;;;;;5131782;27;20047;-77
2023/09/14 12:40:37;;;;;;;5.78;1.45;;;17.70;99.90;;;;;;5117084;28;20112;-76
2023/09/14 12:43:04;;;;;;;2.97;1.20;;;17.80;99.90;;;;;;5116300;28;20475;-76
2023/09/14 12:45:33;;;;;;;2.55;1.38;;;18.00;99.90;;;;;;5117208;28;20093;-76
2023/09/14 12:48:04;;;;;;;3.50;1.48;;;18.20;99.90;;;;;;5117325;28;20047;-76
2023/09/14 12:50:35;;;;;;;3.80;1.35;;;18.60;99.90;;;;;;5117360;28;20036;-77
2023/09/14 12:53:08;;;;;;;2.72;1.20;;;19.50;99.90;;;;;;5116887;28;20047;-77